Time;durP1;ratioP1;P1;durP2;ratioP2;P2;SDS_P1;SDS_P2;PMS_P1;PMS_P2;Temp;Humidity;BMP_temperature;BMP_pressure;BME280_temperature;BME280_humidity;BME280_pressure;Samples;Min_cycle;Max_cycle;Signal;HPM_P1;HPM_P2
2023/08/12 00:00:08;;;;;;;7.87;3.25;;;;;;;18.48;53.49;99808.81;4473947;32;33967;-85
2023/08/12 00:02:38;;;;;;;8.35;2.90;;;;;;;18.47;53.44;99809.69;4475719;32;33783;-84
2023/08/12 00:05:07;;;;;;;5.72;2.78;;;;;;;18.54;53.03;99809.66;4481645;32;33991;-83
2023/08/12 00:07:34;;;;;;;8.18;2.90;;;;;;;18.53;53.00;99813.16;4483025;32;33646;-85
2023/08/12 00:10:04;;;;;;;6.97;3.00;;;;;;;18.69;52.17;99804.25;4483312;32;33441;-84
2023/08/12 00:12:32;;;;;;;4.68;2.55;;;;;;;18.59;52.20;99810.47;4483090;32;33781;-83
2023/08/12 00:14:59;;;;;;;7.12;3.08;;;;;;;18.65;52.45;99807.78;4480738;32;33714;-84
2023/08/12 00:17:27;;;;;;;6.68;3.20;;;;;;;18.67;52.27;99803.37;4477496;32;33008;-83
2023/08/12 00:19:55;;;;;;;5.15;2.80;;;;;;;18.66;52.29;99804.28;4479825;32;33979;-83
2023/08/12 00:22:22;;;;;;;5.18;2.85;;;;;;;18.79;52.17;99803.31;4481699;32;34322;-85
2023/08/12 00:24:51;;;;;;;6.07;2.90;;;;;;;18.75;52.00;99801.56;4476994;32;34747;-83
2023/08/12 00:27:18;;;;;;;5.80;2.92;;;;;;;18.75;51.74;99801.56;4475688;32;33075;-82
2023/08/12 00:29:46;;;;;;;5.78;3.15;;;;;;;18.76;52.04;99797.22;4474389;32;34640;-82
2023/08/12 00:32:14;;;;;;;5.68;3.28;;;;;;;18.77;51.95;99794.56;4481523;32;35040;-82
2023/08/12 00:34:41;;;;;;;4.47;2.58;;;;;;;18.69;52.16;99799.00;4482209;32;33411;-82
2023/08/12 00:37:09;;;;;;;5.28;2.95;;;;;;;18.56;52.56;99790.38;4466754;32;33594;-82
2023/08/12 00:39:38;;;;;;;5.43;2.50;;;;;;;18.53;52.58;99794.78;4471556;32;34017;-82
2023/08/12 00:42:06;;;;;;;5.30;2.60;;;;;;;18.63;52.17;99797.28;4482384;32;34919;-84
2023/08/12 00:44:34;;;;;;;5.45;2.70;;;;;;;18.66;52.08;99791.16;4482902;32;33559;-85
2023/08/12 00:47:02;;;;;;;5.57;3.10;;;;;;;18.61;52.40;99795.59;4482480;32;33147;-83
2023/08/12 00:49:31;;;;;;;5.45;3.05;;;;;;;18.65;52.42;99790.28;4481847;32;34948;-85
2023/08/12 00:51:59;;;;;;;5.53;3.00;;;;;;;18.53;52.81;99793.03;4481300;32;33834;-83
2023/08/12 00:54:27;;;;;;;4.75;2.75;;;;;;;18.44;53.10;99787.84;4481101;32;34170;-83
2023/08/12 00:56:55;;;;;;;5.18;2.87;;;;;;;18.42;53.12;99787.00;4479918;32;33928;-82
2023/08/12 00:59:23;;;;;;;5.68;3.17;;;;;;;18.41;53.13;99788.78;4480994;32;33734;-85
2023/08/12 01:01:51;;;;;;;5.30;2.97;;;;;;;18.40;53.21;99786.13;4479276;32;34058;-82
2023/08/12 01:04:20;;;;;;;7.03;2.95;;;;;;;18.41;53.16;99790.50;4484131;32;33908;-85
2023/08/12 01:06:48;;;;;;;4.57;2.80;;;;;;;18.42;52.86;99785.25;4483002;32;33873;-82
2023/08/12 01:09:15;;;;;;;4.85;2.80;;;;;;;18.35;53.16;99780.06;4484437;32;33831;-84
2023/08/12 01:11:57;;;;;;;4.18;2.67;;;;;;;18.35;53.16;99786.19;4482782;32;34107;-82
2023/08/12 01:14:34;;;;;;;5.12;2.95;;;;;;;18.43;52.88;99783.50;4483160;32;33522;-84
2023/08/12 01:17:04;;;;;;;5.40;2.90;;;;;;;18.28;53.14;99779.25;4482835;32;33032;-83
2023/08/12 01:19:39;;;;;;;4.80;2.83;;;;;;;18.34;52.95;99784.47;4483239;32;33551;-82
2023/08/12 01:22:10;;;;;;;5.00;3.00;;;;;;;18.27;53.33;99788.00;4481255;32;33853;-82
2023/08/12 01:24:40;;;;;;;5.72;3.03;;;;;;;18.42;52.98;99782.63;4472077;32;33155;-82
2023/08/12 01:27:09;;;;;;;6.20;2.92;;;;;;;18.22;53.49;99788.06;4466872;32;32746;-82
2023/08/12 01:29:41;;;;;;;5.30;2.83;;;;;;;18.06;54.38;99790.81;4477824;32;34559;-83
2023/08/12 01:32:47;;;;;;;5.50;2.70;;;;;;;18.04;54.47;99789.97;4480754;32;34302;-83
2023/08/12 01:35:25;;;;;;;;;;;;;;;17.90;54.89;99788.28;4481472;32;33874;-85
2023/08/12 01:37:52;;;;;;;;;;;;;;;18.39;53.70;99790.53;4481202;32;32986;-82
2023/08/12 01:40:21;;;;;;;5.32;3.15;;;;;;;18.33;54.26;99787.94;4481948;32;34291;-83
2023/08/12 01:42:49;;;;;;;4.90;2.80;;;;;;;18.12;54.79;99793.38;4482064;32;34279;-84
2023/08/12 01:45:18;;;;;;;4.95;2.42;;;;;;;18.23;54.06;99791.56;4484109;32;33768;-85
2023/08/12 01:47:47;;;;;;;6.03;2.53;;;;;;;18.12;54.60;99793.38;4483941;32;34475;-82
2023/08/12 01:50:15;;;;;;;4.90;2.65;;;;;;;18.14;54.57;99795.09;4483192;32;33774;-82
2023/08/12 01:52:43;;;;;;;5.43;2.75;;;;;;;18.11;54.38;99789.91;4481736;32;33708;-83
2023/08/12 01:55:10;;;;;;;4.22;2.62;;;;;;;18.14;54.07;99792.47;4483853;32;33494;-85
2023/08/12 01:57:38;;;;;;;5.35;2.62;;;;;;;18.15;54.12;99790.75;4484086;32;33888;-85
2023/08/12 02:00:06;;;;;;;5.12;2.87;;;;;;;18.27;53.83;99788.00;4482945;32;34632;-82
2023/08/12 02:02:46;;;;;;;5.32;3.15;;;;;;;18.20;54.01;99792.44;4484009;32;34227;-85
2023/08/12 02:05:14;;;;;;;7.87;2.83;;;;;;;18.15;54.07;99793.38;4483891;32;34411;-85
2023/08/12 02:07:42;;;;;;;4.65;2.87;;;;;;;18.09;54.33;99793.41;4483435;32;33067;-83
2023/08/12 02:10:10;;;;;;;5.07;2.80;;;;;;;18.12;54.29;99788.13;4483291;32;33934;-83
2023/08/12 02:12:37;;;;;;;5.57;2.90;;;;;;;18.27;53.84;99789.78;4481976;32;34123;-85
2023/08/12 02:15:06;;;;;;;5.07;2.92;;;;;;;18.21;54.51;99795.94;4484281;32;34920;-86
2023/08/12 02:17:33;;;;;;;5.00;3.28;;;;;;;18.12;54.99;99794.25;4484073;32;33231;-85
2023/08/12 02:20:01;;;;;;;4.62;2.58;;;;;;;18.07;55.03;99789.91;4483929;32;33978;-83
2023/08/12 02:22:29;;;;;;;6.25;2.90;;;;;;;18.01;55.58;99790.84;4482525;32;32896;-83
2023/08/12 02:24:57;;;;;;;4.62;2.87;;;;;;;17.91;55.93;99786.53;4483932;32;34150;-86
2023/08/12 02:27:25;;;;;;;6.03;3.20;;;;;;;17.95;55.83;99785.63;4481898;32;33088;-86
2023/08/12 02:29:52;;;;;;;5.00;2.92;;;;;;;17.92;55.68;99788.31;4482551;32;33889;-84
2023/08/12 02:32:20;;;;;;;6.90;2.97;;;;;;;18.02;55.30;99781.22;4482375;32;33962;-81
2023/08/12 02:34:48;;;;;;;6.07;3.10;;;;;;;18.01;54.98;99784.72;4483700;32;34350;-84
2023/08/12 02:37:15;;;;;;;5.45;3.10;;;;;;;17.95;55.07;99783.00;4482559;32;35023;-84
2023/08/12 02:39:43;;;;;;;5.50;2.65;;;;;;;18.02;54.96;99781.22;4483941;32;35092;-83
2023/08/12 02:42:11;;;;;;;5.70;3.12;;;;;;;17.92;55.52;99786.53;4483875;32;33687;-83
2023/08/12 02:44:38;;;;;;;5.40;3.05;;;;;;;17.83;55.71;99786.59;4483543;32;33957;-84
2023/08/12 02:47:06;;;;;;;5.68;2.85;;;;;;;17.88;55.52;99784.81;4482763;32;33966;-83
2023/08/12 02:49:34;;;;;;;6.25;3.72;;;;;;;17.82;55.83;99779.59;4483427;32;34750;-83
2023/08/12 02:52:01;;;;;;;6.03;3.10;;;;;;;17.97;55.37;99782.13;4483392;32;34098;-85
2023/08/12 02:54:29;;;;;;;5.60;3.33;;;;;;;17.81;55.61;99783.12;4483592;32;34717;-83
2023/08/12 02:56:56;;;;;;;5.03;3.15;;;;;;;17.82;55.49;99773.50;4481582;32;33451;-83
2023/08/12 02:59:25;;;;;;;6.90;3.50;;;;;;;17.66;55.85;99775.31;4483554;32;33537;-85
2023/08/12 03:01:54;;;;;;;5.40;3.15;;;;;;;17.67;55.87;99774.44;4483436;32;34238;-84
2023/08/12 03:04:22;;;;;;;8.32;3.70;;;;;;;17.69;55.75;99783.16;4481873;32;34871;-85
2023/08/12 03:06:50;;;;;;;7.53;3.30;;;;;;;17.65;55.93;99777.06;4482856;32;33139;-83
2023/08/12 03:09:18;;;;;;;6.65;3.70;;;;;;;17.66;56.10;99781.44;4481382;32;33996;-83
2023/08/12 03:11:46;;;;;;;5.20;3.22;;;;;;;17.53;56.61;99782.38;4483314;32;33823;-83
2023/08/12 03:14:14;;;;;;;5.32;3.25;;;;;;;17.51;56.46;99774.53;4482806;32;34776;-84
2023/08/12 03:16:41;;;;;;;7.43;3.87;;;;;;;17.55;56.39;99777.12;4483028;32;33338;-85
2023/08/12 03:19:09;;;;;;;5.60;3.30;;;;;;;17.71;56.06;99777.03;4482118;32;35397;-83
2023/08/12 03:21:37;;;;;;;8.15;3.60;;;;;;;17.55;56.34;99779.75;4483559;32;34040;-86
2023/08/12 03:24:05;;;;;;;8.40;3.90;;;;;;;17.49;56.64;99786.75;4483529;32;33884;-83
2023/08/12 03:26:33;;;;;;;6.50;3.55;;;;;;;17.52;56.55;99780.63;4483456;32;34572;-85
2023/08/12 03:29:01;;;;;;;6.28;3.62;;;;;;;17.49;56.72;99784.12;4482751;32;33963;-83
2023/08/12 03:31:28;;;;;;;5.72;3.45;;;;;;;17.37;57.17;99778.09;4481674;32;34239;-82
2023/08/12 03:33:56;;;;;;;8.18;3.83;;;;;;;17.50;56.71;99785.91;4483425;32;34013;-84
2023/08/12 03:36:24;;;;;;;7.50;3.72;;;;;;;17.47;56.67;99785.91;4483498;32;34224;-83
2023/08/12 03:38:51;;;;;;;7.60;4.05;;;;;;;17.54;56.54;99789.38;4482652;32;33758;-84
2023/08/12 03:41:19;;;;;;;5.93;3.42;;;;;;;17.48;56.75;99799.88;4483875;32;33838;-85
2023/08/12 03:43:48;;;;;;;6.20;4.05;;;;;;;17.44;56.80;99792.91;4483553;32;35443;-85
2023/08/12 03:46:16;;;;;;;6.03;3.30;;;;;;;17.38;57.55;99803.41;4483471;32;33365;-85
2023/08/12 03:48:45;;;;;;;5.70;3.75;;;;;;;17.45;57.58;99797.28;4480871;32;34295;-85
2023/08/12 03:51:13;;;;;;;7.28;3.75;;;;;;;17.60;57.21;99798.94;4483559;32;34232;-85
2023/08/12 03:53:40;;;;;;;5.97;3.42;;;;;;;17.51;57.48;99800.75;4483474;32;34741;-83
2023/08/12 03:56:08;;;;;;;6.45;3.85;;;;;;;17.52;57.63;99802.47;4477645;32;34448;-84
2023/08/12 03:58:36;;;;;;;7.25;3.90;;;;;;;17.54;57.52;99799.88;4483392;32;34323;-85
2023/08/12 04:01:04;;;;;;;6.40;3.87;;;;;;;17.51;57.60;99803.37;4483005;32;34006;-85
2023/08/12 04:03:32;;;;;;;8.55;3.83;;;;;;;17.65;57.15;99807.66;4482894;32;34672;-82
2023/08/12 04:06:00;;;;;;;6.57;3.80;;;;;;;17.57;57.65;99804.19;4482176;32;34377;-85
2023/08/12 04:08:28;;;;;;;7.25;3.70;;;;;;;17.47;57.80;99804.25;4483109;32;34699;-85
2023/08/12 04:10:55;;;;;;;6.40;3.28;;;;;;;17.59;57.52;99805.94;4482650;32;34128;-83
2023/08/12 04:13:25;;;;;;;6.05;3.22;;;;;;;17.57;57.53;99804.19;4480856;32;35012;-83
2023/08/12 04:15:55;;;;;;;5.30;3.37;;;;;;;17.60;57.58;99809.44;4483019;32;34429;-84
2023/08/12 04:18:25;;;;;;;5.10;3.22;;;;;;;17.75;57.29;99810.25;4483327;32;35085;-83
2023/08/12 04:20:53;;;;;;;7.50;3.28;;;;;;;17.64;57.70;99816.41;4483151;32;33532;-84
2023/08/12 04:23:20;;;;;;;7.37;3.10;;;;;;;17.64;57.81;99808.53;4482451;32;34012;-83
2023/08/12 04:25:49;;;;;;;7.37;3.50;;;;;;;17.84;57.31;99800.56;4481177;32;34507;-82
2023/08/12 04:28:18;;;;;;;7.55;3.30;;;;;;;17.90;57.34;99811.91;4469828;31;34239;-83
2023/08/12 04:30:50;;;;;;;6.55;3.22;;;;;;;18.04;57.32;99816.19;4473246;31;33855;-85
2023/08/12 04:33:20;;;;;;;5.32;2.67;;;;;;;18.27;56.90;99819.50;4479758;32;34560;-84
2023/08/12 04:35:48;;;;;;;8.40;3.92;;;;;;;18.64;56.24;99819.19;4478374;31;33459;-85
2023/08/12 04:38:22;;;;;;;4.80;2.53;;;;;;;19.03;55.28;99824.94;4482393;32;33630;-85
2023/08/12 04:40:52;;;;;;;5.20;2.65;;;;;;;19.48;54.38;99815.63;4481861;32;35027;-86
2023/08/12 04:43:20;;;;;;;5.80;2.87;;;;;;;19.89;52.96;99809.84;4473981;32;33964;-85
2023/08/12 04:45:48;;;;;;;7.03;2.80;;;;;;;20.23;52.84;99819.84;4465771;32;33123;-85
2023/08/12 04:48:16;;;;;;;5.30;2.75;;;;;;;20.70;51.88;99812.91;4479687;32;33623;-85
2023/08/12 04:50:43;;;;;;;5.35;2.50;;;;;;;21.13;50.75;99817.34;4481674;32;34163;-86
2023/08/12 04:53:11;;;;;;;4.43;2.35;;;;;;;21.48;49.69;99813.16;4482014;32;34847;-85
2023/08/12 04:55:39;;;;;;;4.43;2.30;;;;;;;21.53;49.78;99819.22;4482874;32;33363;-86
2023/08/12 04:58:07;;;;;;;6.07;2.20;;;;;;;21.83;49.33;99818.53;4481943;32;34515;-86
2023/08/12 05:00:36;;;;;;;5.30;2.35;;;;;;;22.21;48.77;99816.78;4483046;32;33978;-86
2023/08/12 05:03:04;;;;;;;4.40;2.15;;;;;;;22.47;48.44;99817.94;4482075;32;34062;-86
2023/08/12 05:05:32;;;;;;;4.60;2.58;;;;;;;22.71;47.93;99817.28;4479482;32;33290;-85
2023/08/12 05:08:00;;;;;;;5.78;2.50;;;;;;;22.88;47.71;99819.50;4468478;32;33971;-86
2023/08/12 05:10:27;;;;;;;8.05;2.33;;;;;;;23.18;47.37;99812.47;4482804;32;34162;-86
2023/08/12 05:12:57;;;;;;;5.00;2.20;;;;;;;23.38;46.76;99811.06;4481738;32;33603;-85
2023/08/12 05:15:25;;;;;;;4.68;2.30;;;;;;;23.43;46.75;99810.00;4482610;32;34021;-86
2023/08/12 05:17:53;;;;;;;3.70;1.92;;;;;;;23.60;46.47;99809.50;4482229;32;33734;-86
2023/08/12 05:20:20;;;;;;;4.32;1.90;;;;;;;23.56;46.63;99810.50;4478580;32;33756;-85
2023/08/12 05:22:48;;;;;;;4.70;2.30;;;;;;;23.77;46.38;99812.53;4482188;32;33599;-86
2023/08/12 05:25:15;;;;;;;4.15;2.37;;;;;;;24.07;46.45;99809.84;4482251;32;33133;-86
2023/08/12 05:27:43;;;;;;;4.45;2.30;;;;;;;24.18;45.60;99812.13;4481505;32;33501;-86
2023/08/12 05:30:11;;;;;;;4.18;2.25;;;;;;;24.34;45.77;99807.19;4481759;32;33517;-86
2023/08/12 05:32:40;;;;;;;3.90;1.90;;;;;;;24.43;45.44;99817.50;4480898;32;33754;-86
2023/08/12 05:35:08;;;;;;;4.22;2.17;;;;;;;24.43;44.95;99801.59;4482112;32;33419;-86
2023/08/12 05:37:35;;;;;;;4.50;2.33;;;;;;;24.49;43.50;99809.34;4467868;32;32554;-86
2023/08/12 05:40:07;;;;;;;7.20;2.03;;;;;;;24.30;44.74;99808.22;4482020;32;33780;-86
2023/08/12 05:42:35;;;;;;;5.50;2.10;;;;;;;24.38;44.82;99806.16;4481978;32;34589;-86
2023/08/12 05:45:04;;;;;;;3.85;2.10;;;;;;;24.92;44.73;99806.06;4481884;32;33574;-87
2023/08/12 05:47:34;;;;;;;4.80;1.77;;;;;;;24.57;43.81;99799.34;4480524;32;33732;-86
2023/08/12 05:50:02;;;;;;;5.68;2.20;;;;;;;24.13;45.02;99809.66;4484184;32;33822;-86
2023/08/12 05:52:30;;;;;;;4.78;2.37;;;;;;;23.53;47.60;99807.97;4483670;32;35069;-85
2023/08/12 05:54:57;;;;;;;7.75;2.40;;;;;;;23.82;47.38;99807.09;4484277;32;33718;-86
2023/08/12 05:57:25;;;;;;;6.32;3.20;;;;;;;23.65;45.53;99815.53;4483275;32;33566;-86
2023/08/12 05:59:55;;;;;;;7.05;2.65;;;;;;;23.11;48.09;99816.25;4482745;32;33800;-87
2023/08/12 06:02:23;;;;;;;5.65;2.62;;;;;;;23.42;45.98;99820.66;4484227;32;33951;-86
2023/08/12 06:04:51;;;;;;;6.20;3.22;;;;;;;22.60;47.45;99819.34;4484092;32;34053;-85
2023/08/12 06:07:18;;;;;;;6.37;3.03;;;;;;;23.00;46.47;99823.59;4484114;32;33746;-85
2023/08/12 06:09:46;;;;;;;7.68;3.03;;;;;;;22.87;47.06;99817.72;4483914;32;35075;-86
2023/08/12 06:12:14;;;;;;;6.18;2.87;;;;;;;22.32;48.55;99813.91;4484233;32;34212;-87
2023/08/12 06:14:41;;;;;;;6.12;2.50;;;;;;;22.59;48.36;99809.69;4483982;32;34172;-87
2023/08/12 06:17:09;;;;;;;6.53;2.78;;;;;;;22.76;48.50;99811.88;4468257;32;33891;-86
2023/08/12 06:19:36;;;;;;;7.22;2.90;;;;;;;22.94;47.90;99814.03;4468297;32;34261;-87
2023/08/12 06:22:04;;;;;;;4.60;2.42;;;;;;;23.02;47.74;99817.34;4468390;32;34233;-87
2023/08/12 06:24:31;;;;;;;8.73;2.70;;;;;;;23.15;47.54;99817.03;4477791;32;32623;-86
2023/08/12 06:26:59;;;;;;;5.37;2.72;;;;;;;22.31;48.61;99822.69;4483966;32;35052;-87
2023/08/12 06:29:26;;;;;;;5.97;2.37;;;;;;;22.65;47.84;99816.56;4484251;32;35118;-87
2023/08/12 06:31:54;;;;;;;5.07;2.70;;;;;;;22.56;48.37;99825.59;4483988;32;34098;-87
2023/08/12 06:34:22;;;;;;;5.50;2.65;;;;;;;23.10;47.94;99827.72;4483818;32;34268;-87
2023/08/12 06:36:49;;;;;;;4.53;2.50;;;;;;;23.05;47.07;99825.19;4483701;32;33921;-86
2023/08/12 06:39:17;;;;;;;10.40;2.83;;;;;;;23.31;46.06;99813.00;4483700;32;35084;-85
2023/08/12 06:41:45;;;;;;;5.45;2.30;;;;;;;23.25;47.57;99819.34;4482700;32;34046;-86
2023/08/12 06:44:12;;;;;;;7.57;2.85;;;;;;;22.96;47.37;99822.81;4483707;32;33701;-87
2023/08/12 06:46:40;;;;;;;6.53;2.55;;;;;;;23.22;47.50;99803.56;4483940;32;34049;-88
2023/08/12 06:49:07;;;;;;;6.65;3.22;;;;;;;23.14;47.64;99816.13;4482521;32;34944;-87
2023/08/12 06:51:35;;;;;;;6.60;3.30;;;;;;;23.08;47.60;99818.09;4483645;32;33897;-87
2023/08/12 06:54:02;;;;;;;7.03;3.42;;;;;;;23.17;47.91;99821.34;4483371;32;34095;-86
2023/08/12 06:56:30;;;;;;;6.93;3.17;;;;;;;23.39;47.81;99820.72;4483821;32;33608;-85
2023/08/12 06:58:57;;;;;;;6.75;3.47;;;;;;;23.87;47.22;99805.19;4483884;32;33824;-85
2023/08/12 07:01:25;;;;;;;5.35;2.65;;;;;;;23.92;45.71;99805.88;4483627;32;34100;-87
2023/08/12 07:03:53;;;;;;;6.45;2.67;;;;;;;24.23;45.44;99810.19;4483890;32;33593;-87
2023/08/12 07:06:20;;;;;;;10.02;2.70;;;;;;;24.37;46.12;99812.41;4483720;32;33968;-87
2023/08/12 07:08:48;;;;;;;6.93;2.75;;;;;;;24.21;45.96;99810.25;4483756;32;34060;-87
2023/08/12 07:11:15;;;;;;;6.60;2.67;;;;;;;24.41;44.77;99814.91;4483354;32;34073;-88
2023/08/12 07:13:46;;;;;;;7.00;2.50;;;;;;;24.50;43.64;99808.44;4483730;32;33791;-87
2023/08/12 07:16:13;;;;;;;5.65;2.70;;;;;;;23.70;45.83;99812.75;4483668;32;34306;-87
2023/08/12 07:18:42;;;;;;;5.62;2.67;;;;;;;24.32;44.43;99814.31;4481911;32;34681;-87
2023/08/12 07:21:09;;;;;;;6.75;2.33;;;;;;;24.61;45.41;99816.88;4483554;32;34763;-84
2023/08/12 07:23:37;;;;;;;6.68;2.33;;;;;;;25.04;43.17;99809.19;4483316;32;33241;-87
2023/08/12 07:26:06;;;;;;;4.97;2.28;;;;;;;25.08;42.95;99810.81;4483772;32;33418;-88
2023/08/12 07:28:34;;;;;;;5.43;2.60;;;;;;;24.68;42.60;99813.09;4483219;32;34307;-87
2023/08/12 07:31:01;;;;;;;4.72;2.30;;;;;;;24.54;43.18;99818.00;4483399;32;34782;-88
2023/08/12 07:33:29;;;;;;;8.30;2.70;;;;;;;24.78;43.77;99807.50;4483495;32;33717;-85
2023/08/12 07:35:57;;;;;;;7.12;2.72;;;;;;;24.42;43.94;99815.78;4483295;32;33226;-87
2023/08/12 07:38:24;;;;;;;4.45;2.25;;;;;;;24.02;45.09;99814.41;4483229;32;33831;-88
2023/08/12 07:40:52;;;;;;;17.77;3.03;;;;;;;24.36;44.40;99814.19;4483581;32;33704;-86
2023/08/12 07:43:19;;;;;;;8.75;2.95;;;;;;;24.74;43.00;99810.25;4483627;32;33052;-88
2023/08/12 07:45:54;;;;;;;4.68;2.30;;;;;;;25.18;43.99;99814.91;4482382;32;35043;-89
2023/08/12 07:48:35;;;;;;;5.68;2.15;;;;;;;25.40;42.12;99815.84;4467819;32;35192;-87
2023/08/12 07:51:03;;;;;;;4.70;2.35;;;;;;;25.24;42.90;99815.56;4468096;32;33887;-85
2023/08/12 07:53:30;;;;;;;6.60;2.60;;;;;;;25.87;41.72;99801.66;4467737;32;33268;-86
2023/08/12 07:55:58;;;;;;;5.12;1.98;;;;;;;25.93;41.73;99804.94;4467778;32;34057;-86
2023/08/12 07:58:25;;;;;;;9.98;2.78;;;;;;;25.96;42.27;99809.28;4481744;32;33766;-89
2023/08/12 08:00:53;;;;;;;4.65;2.33;;;;;;;25.96;41.42;99803.97;4483636;32;34269;-88
2023/08/12 08:03:21;;;;;;;5.20;2.58;;;;;;;25.64;41.29;99811.37;4483146;32;33547;-88
2023/08/12 08:05:49;;;;;;;4.30;1.90;;;;;;;25.72;42.19;99811.06;4483255;32;33861;-87
2023/08/12 08:08:16;;;;;;;5.93;2.37;;;;;;;25.64;42.11;99806.06;4483310;32;34146;-88
2023/08/12 08:10:44;;;;;;;6.62;2.30;;;;;;;25.92;40.68;99805.88;4482056;32;34163;-87
2023/08/12 08:13:11;;;;;;;5.28;2.50;;;;;;;26.32;39.99;99804.25;4483366;32;32970;-88
2023/08/12 08:15:39;;;;;;;5.40;2.20;;;;;;;26.26;41.54;99801.00;4483189;32;34646;-86
2023/08/12 08:18:07;;;;;;;4.45;2.17;;;;;;;25.92;40.84;99797.06;4482467;32;34227;-86
2023/08/12 08:20:35;;;;;;;5.30;2.37;;;;;;;26.17;40.82;99797.75;4483120;32;33580;-87
2023/08/12 08:23:02;;;;;;;5.80;2.08;;;;;;;26.18;40.86;99802.19;4483354;32;33754;-87
2023/08/12 08:25:30;;;;;;;5.90;2.35;;;;;;;26.26;42.05;99796.53;4483143;32;34370;-87
2023/08/12 08:27:58;;;;;;;5.47;2.12;;;;;;;26.34;39.94;99801.53;4483099;32;35338;-88
2023/08/12 08:30:25;;;;;;;6.50;2.20;;;;;;;26.63;40.10;99806.53;4483905;32;35037;-87
2023/08/12 08:32:53;;;;;;;5.03;2.20;;;;;;;26.59;42.25;99799.56;4483191;32;34197;-87
2023/08/12 08:35:21;;;;;;;4.18;1.95;;;;;;;26.09;39.71;99797.22;4483156;32;34324;-86
2023/08/12 08:37:49;;;;;;;3.30;1.60;;;;;;;25.90;41.72;99801.56;4482617;32;35867;-88
2023/08/12 08:40:17;;;;;;;4.78;2.00;;;;;;;26.46;38.31;99795.72;4483448;32;34548;-87
2023/08/12 08:42:52;;;;;;;7.37;2.10;;;;;;;26.68;39.80;99801.84;4482990;32;34378;-86
2023/08/12 08:45:22;;;;;;;5.87;2.20;;;;;;;26.16;39.62;99803.16;4482965;32;33982;-87
2023/08/12 08:47:51;;;;;;;5.78;2.30;;;;;;;26.18;40.25;99796.84;4482702;32;34169;-87
2023/08/12 08:50:20;;;;;;;4.72;2.28;;;;;;;26.41;40.59;99808.31;4481590;32;33914;-87
2023/08/12 08:52:49;;;;;;;6.57;2.08;;;;;;;25.93;41.12;99796.13;4482754;32;33448;-88
2023/08/12 08:55:18;;;;;;;5.12;2.60;;;;;;;26.20;41.00;99800.31;4483064;32;34489;-87
2023/08/12 08:57:50;;;;;;;5.12;1.90;;;;;;;25.92;39.31;99797.06;4482108;32;33686;-87
2023/08/12 09:00:18;;;;;;;5.97;2.25;;;;;;;26.24;40.11;99805.50;4479516;32;34763;-85
2023/08/12 09:02:47;;;;;;;4.25;2.25;;;;;;;26.06;40.59;99802.66;4455803;32;34089;-87
2023/08/12 09:05:15;;;;;;;7.32;4.07;;;;;;;26.02;41.08;99800.19;4482908;32;33596;-87
2023/08/12 09:07:44;;;;;;;8.20;2.53;;;;;;;26.60;40.25;99795.16;4482897;32;34153;-88
2023/08/12 09:10:12;;;;;;;6.20;2.12;;;;;;;26.46;40.39;99795.72;4474866;32;34033;-87
2023/08/12 09:12:43;;;;;;;4.68;2.33;;;;;;;26.85;40.57;99792.25;4482803;32;33119;-86
2023/08/12 09:15:10;;;;;;;4.43;2.20;;;;;;;26.47;39.88;99797.44;4482516;32;34536;-87
2023/08/12 09:17:38;;;;;;;5.25;2.12;;;;;;;26.63;39.38;99795.00;4483061;32;34199;-88
2023/08/12 09:20:11;;;;;;;4.28;2.12;;;;;;;26.72;38.62;99797.28;4482421;32;34047;-87
2023/08/12 09:22:42;;;;;;;8.38;2.40;;;;;;;26.52;38.64;99795.47;4482202;32;31927;-87
2023/08/12 09:25:11;;;;;;;19.00;12.00;;;;;;;26.59;39.50;99790.75;4484820;32;34661;-87
2023/08/12 09:27:39;;;;;;;5.40;2.30;;;;;;;27.06;37.65;99778.00;4469856;32;33912;-87
2023/08/12 09:30:07;;;;;;;4.12;1.98;;;;;;;26.97;36.59;99786.38;4468620;32;33951;-87
2023/08/12 09:32:38;;;;;;;4.50;2.30;;;;;;;26.95;37.06;99777.63;4469572;32;34370;-87
2023/08/12 09:35:23;;;;;;;5.05;2.22;;;;;;;27.00;37.05;99770.28;4484542;32;33507;-87
2023/08/12 09:37:50;;;;;;;4.37;2.05;;;;;;;27.05;37.09;99775.41;4484447;32;34611;-87
2023/08/12 09:40:18;;;;;;;4.57;1.85;;;;;;;27.34;36.27;99774.97;4484361;32;35053;-88
2023/08/12 09:42:46;;;;;;;4.95;1.90;;;;;;;27.25;35.83;99769.22;4483190;32;33283;-88
2023/08/12 09:45:14;;;;;;;5.68;2.10;;;;;;;26.56;35.54;99767.81;4484421;32;34740;-86
2023/08/12 09:47:44;;;;;;;4.00;2.20;;;;;;;26.67;36.30;99767.34;4484155;32;34222;-87
2023/08/12 09:50:13;;;;;;;4.18;2.30;;;;;;;26.82;36.53;99771.09;4483950;32;34286;-87
2023/08/12 09:52:41;;;;;;;4.50;2.35;;;;;;;26.99;37.74;99765.06;4484091;32;33260;-87
2023/08/12 09:55:11;;;;;;;5.15;2.62;;;;;;;27.33;37.80;99767.06;4484332;32;34027;-87
2023/08/12 09:57:42;;;;;;;4.53;2.08;;;;;;;27.55;35.45;99762.47;4480313;32;34776;-87
2023/08/12 10:00:16;;;;;;;5.37;3.37;;;;;;;27.76;36.07;99759.72;4483786;32;34052;-87
2023/08/12 10:02:48;;;;;;;4.62;2.15;;;;;;;27.77;35.60;99756.09;4483615;32;34569;-87
2023/08/12 10:05:20;;;;;;;4.25;2.20;;;;;;;27.99;36.52;99758.59;4481781;32;33876;-87
2023/08/12 10:07:48;;;;;;;9.15;7.00;;;;;;;28.02;35.42;99748.63;4484391;31;34295;-87
2023/08/12 10:10:16;;;;;;;3.80;2.00;;;;;;;28.07;35.78;99746.62;4500363;31;33185;-87
2023/08/12 10:12:43;;;;;;;7.53;2.60;;;;;;;28.09;36.95;99747.41;4500590;31;33025;-88
2023/08/12 10:15:11;;;;;;;6.37;1.95;;;;;;;28.11;34.96;99734.87;4499574;31;34646;-87
2023/08/12 10:17:40;;;;;;;4.18;2.03;;;;;;;28.08;36.16;99735.00;4500406;31;34289;-87
2023/08/12 10:20:24;;;;;;;5.45;2.35;;;;;;;28.41;34.90;99736.91;4489957;31;34007;-87
2023/08/12 10:22:53;;;;;;;10.27;8.20;;;;;;;28.06;36.26;99739.53;4484261;32;34287;-87
2023/08/12 10:25:23;;;;;;;7.78;4.72;;;;;;;28.01;37.29;99741.59;4484071;32;34800;-87
2023/08/12 10:27:51;;;;;;;4.97;2.00;;;;;;;28.25;36.02;99739.47;4483737;32;33536;-87
2023/08/12 10:30:20;;;;;;;5.40;3.03;;;;;;;28.22;34.24;99733.44;4483947;32;34057;-87
2023/08/12 10:32:48;;;;;;;4.90;2.20;;;;;;;27.94;36.57;99739.31;4483004;32;33580;-86
2023/08/12 10:35:15;;;;;;;5.50;3.33;;;;;;;27.84;37.86;99746.88;4482102;32;33990;-86
2023/08/12 10:37:48;;;;;;;4.53;1.60;;;;;;;27.14;37.70;99738.62;4482015;32;33986;-86
2023/08/12 10:40:20;;;;;;;3.65;1.60;;;;;;;27.37;36.21;99748.19;4484033;32;34981;-86
2023/08/12 10:42:49;;;;;;;3.47;2.00;;;;;;;27.20;36.58;99739.25;4482764;32;34260;-86
2023/08/12 10:45:18;;;;;;;3.67;1.73;;;;;;;27.27;36.29;99740.72;4483950;32;34066;-84
2023/08/12 10:47:49;;;;;;;5.60;1.98;;;;;;;27.13;37.10;99733.38;4483847;32;33930;-86
2023/08/12 10:50:18;;;;;;;5.95;2.12;;;;;;;27.25;36.88;99731.94;4484041;32;34856;-87
2023/08/12 10:52:46;;;;;;;5.62;2.92;;;;;;;27.47;37.75;99723.81;4483926;32;33580;-87
2023/08/12 10:55:25;;;;;;;4.12;2.22;;;;;;;27.64;35.72;99718.53;4483563;32;34695;-87
2023/08/12 10:57:54;;;;;;;4.37;1.85;;;;;;;28.00;37.28;99721.22;4483811;32;34166;-87
2023/08/12 11:00:25;;;;;;;8.38;4.62;;;;;;;27.91;36.23;99720.81;4482589;32;33430;-87
2023/08/12 11:02:54;;;;;;;15.18;6.60;;;;;;;27.56;35.02;99721.56;4482824;32;33807;-86
2023/08/12 11:05:23;;;;;;;5.93;2.00;;;;;;;27.67;36.39;99720.19;4477176;32;33569;-87
2023/08/12 11:08:00;;;;;;;4.50;1.90;;;;;;;27.58;39.33;99714.38;4469644;32;34297;-86
2023/08/12 11:10:33;;;;;;;4.85;1.95;;;;;;;27.77;36.67;99718.81;4469765;32;33079;-86
2023/08/12 11:13:02;;;;;;;3.75;1.62;;;;;;;27.68;36.34;99713.91;4469489;32;34115;-86
2023/08/12 11:15:41;;;;;;;4.78;1.65;;;;;;;27.86;36.09;99702.38;4483511;32;33459;-86
2023/08/12 11:18:13;;;;;;;3.15;1.80;;;;;;;27.89;36.36;99704.91;4482272;32;34993;-87
2023/08/12 11:20:42;;;;;;;3.65;1.70;;;;;;;27.99;35.42;99700.81;4483475;32;34594;-86
2023/08/12 11:23:10;;;;;;;3.87;2.00;;;;;;;27.97;35.38;99702.72;4483503;32;33459;-87
2023/08/12 11:25:39;;;;;;;3.95;1.70;;;;;;;28.14;34.86;99701.84;4483166;32;34634;-88
2023/08/12 11:28:07;;;;;;;5.90;2.22;;;;;;;28.67;34.37;99694.69;4483681;32;34147;-87
2023/08/12 11:30:35;;;;;;;5.85;2.35;;;;;;;28.71;35.15;99686.44;4483614;32;34585;-86
2023/08/12 11:33:03;;;;;;;7.97;2.10;;;;;;;28.06;34.58;99696.03;4483545;32;34329;-87
2023/08/12 11:35:31;;;;;;;3.60;1.73;;;;;;;28.20;36.10;99690.00;4483452;32;34638;-88
2023/08/12 11:37:59;;;;;;;3.75;2.17;;;;;;;28.42;32.59;99685.31;4483818;32;33858;-84
2023/08/12 11:40:27;;;;;;;4.72;2.00;;;;;;;28.36;33.68;99681.13;4483514;32;33881;-87